Anna G — 5BNB4 — position and weather

sailwx.info

Track history (hours):
 
Tides and Currents Weather Stations Pressure Air Temp Water Temp Dewpoint Dewpoint Depression Visibility Wind Speed Wind Dir Waves Ship Positions

Anna G

Last reported at 2018-Feb-24 17:06 UTC. Time now 2018-Feb-25 00:22 UTC.
Position N 55°58' W 004°46'.

Length 101 m; draft 5.3 m.

Type: Ship (hazmat cat A). MMSI: 212075000.

Date/timePositionNaut miles runAvg speedWind from/ knotsBaromVisibWave heightAir tempDewpointWater temp
2018-Feb-24 17:06N 55°58' W 004°46'1 7.8
2018-Feb-24 16:59N 55°58' W 004°48'510.1
2018-Feb-24 16:31N 55°55' W 004°55'612.7
2018-Feb-24 16:00N 55°49' W 004°57'713.1
2018-Feb-24 15:30N 55°43' W 004°59'4012.7
2018-Feb-24 12:19N 55°04' W 005°21'412.6
2018-Feb-24 12:01N 55°01' W 005°24'612.8
2018-Feb-24 11:30N 54°55' W 005°29'612.9
2018-Feb-24 11:00N 54°49' W 005°35'613.0
2018-Feb-24 10:31N 54°44' W 005°41'611.2
2018-Feb-24 10:01N 54°41' W 005°49'4 0.3
2018-Feb-23 18:46N 54°38' W 005°53'0 0.1
2018-Feb-23 15:34N 54°38' W 005°53'0 7.5
2018-Feb-23 15:30N 54°39' W 005°52'611.5
2018-Feb-23 15:00N 54°42' W 005°44'611.5
2018-Feb-23 14:30N 54°43' W 005°35'5 9.3
2018-Feb-23 14:00N 54°41' W 005°27'5 9.6
2018-Feb-23 13:30N 54°37' W 005°24'5 9.4
2018-Feb-23 13:00N 54°33' W 005°20'510.0
2018-Feb-23 12:30N 54°28' W 005°16'510.5
2018-Feb-23 12:00N 54°24' W 005°12'510.7
2018-Feb-23 11:30N 54°19' W 005°08'510.7
2018-Feb-23 11:00N 54°14' W 005°04'4811.1
2018-Feb-23 06:42N 53°44' W 004°00'312.3
2018-Feb-23 06:29N 53°43' W 003°56'612.4
2018-Feb-23 06:00N 53°40' W 003°47'612.1
2018-Feb-23 05:30N 53°38' W 003°38'611.8
2018-Feb-23 05:00N 53°35' W 003°29'611.5
2018-Feb-23 04:30N 53°33' W 003°20'510.5
2018-Feb-23 04:00N 53°31' W 003°12'510.7
2018-Feb-23 03:30N 53°29' W 003°04'2 4.7
2018-Feb-23 03:00N 53°27' W 003°01'0 0.3
2018-Feb-23 02:30N 53°27' W 003°01'0 0.8
2018-Feb-23 01:59N 53°28' W 003°01'0 0.0
2018-Feb-23 01:29N 53°28' W 003°01'0 0.0
2018-Feb-23 00:59N 53°28' W 003°01'0 0.0
2018-Feb-23 00:29N 53°28' W 003°01'0 0.0
2018-Feb-22 23:59N 53°28' W 003°01'0 0.0
2018-Feb-22 23:29N 53°28' W 003°01'0 0.0
2018-Feb-22 22:59N 53°28' W 003°01'0 0.0
2018-Feb-22 22:29N 53°28' W 003°01'0 0.0
2018-Feb-22 21:59N 53°28' W 003°01'0 0.0
2018-Feb-22 21:29N 53°28' W 003°01'0 0.0
2018-Feb-22 20:59N 53°28' W 003°01'0 0.0
2018-Feb-22 20:29N 53°28' W 003°01'0 0.0
2018-Feb-22 19:59N 53°28' W 003°01'0 0.0
2018-Feb-22 19:28N 53°28' W 003°01'0 0.0
2018-Feb-22 18:58N 53°28' W 003°01'0 0.0
2018-Feb-22 18:28N 53°28' W 003°01'0 0.0
2018-Feb-22 17:58N 53°28' W 003°01'0 0.0
2018-Feb-22 17:25N 53°28' W 003°01'0 0.0
2018-Feb-22 16:58N 53°28' W 003°01'0 0.0
2018-Feb-22 16:28N 53°28' W 003°01'0 0.0
2018-Feb-22 15:49N 53°28' W 003°01'0 0.0
2018-Feb-22 15:28N 53°28' W 003°01'0 0.0
2018-Feb-22 14:58N 53°28' W 003°01'0 0.0
2018-Feb-22 14:28N 53°28' W 003°01'0 0.0
2018-Feb-22 13:58N 53°28' W 003°01'0 0.0
2018-Feb-22 13:28N 53°28' W 003°01'0 0.0
2018-Feb-22 12:55N 53°28' W 003°01'0 0.0
2018-Feb-22 12:22N 53°28' W 003°01'0 0.0
2018-Feb-22 12:00N 53°28' W 003°01'1 1.3
2018-Feb-22 11:30N 53°27' W 003°01'0 0.0
2018-Feb-22 11:00N 53°27' W 003°01'2 3.2
2018-Feb-22 10:30N 53°28' W 003°03'5 9.5
2018-Feb-22 10:00N 53°32' W 003°08'510.4
2018-Feb-22 09:30N 53°31' W 003°17'5 9.1
2018-Feb-22 09:00N 53°31' W 003°25'510.8
2018-Feb-22 08:30N 53°31' W 003°34'510.7
2018-Feb-22 08:00N 53°31' W 003°43'511.1
2018-Feb-22 07:30N 53°31' W 003°52'510.8
2018-Feb-22 07:00N 53°31' W 004°01'142 9.8
2018-Feb-21 16:28N 51°56' W 006°56'611.3
2018-Feb-21 15:54N 51°54' W 007°06'411.3
2018-Feb-21 15:30N 51°53' W 007°13'611.3
2018-Feb-21 15:00N 51°51' W 007°22'611.2
2018-Feb-21 14:30N 51°50' W 007°31'611.3
2018-Feb-21 14:00N 51°49' W 007°40'611.1
2018-Feb-21 13:30N 51°48' W 007°49'611.3
2018-Feb-21 13:00N 51°46' W 007°57'611.3
2018-Feb-21 12:30N 51°45' W 008°06'510.5
2018-Feb-21 12:00N 51°46' W 008°15'510.7
2018-Feb-21 11:30N 51°51' W 008°17'4 7.6
2018-Feb-21 11:00N 51°53' W 008°22'2 3.5
2018-Feb-21 10:30N 51°54' W 008°25'0 0.0
2018-Feb-21 10:00N 51°54' W 008°25'0 0.0
2018-Feb-21 09:31N 51°54' W 008°25'0 0.0
2018-Feb-21 09:00N 51°54' W 008°25'0 0.0
2018-Feb-21 08:30N 51°54' W 008°25'0 0.0
2018-Feb-21 08:00N 51°54' W 008°25'0 0.0
2018-Feb-21 07:30N 51°54' W 008°25'0 0.0
2018-Feb-21 07:00N 51°54' W 008°25'0 0.0
2018-Feb-21 06:30N 51°54' W 008°25'0 0.0
2018-Feb-21 06:00N 51°54' W 008°25'0 0.0
2018-Feb-21 05:27N 51°54' W 008°25'0 0.0
2018-Feb-21 05:00N 51°54' W 008°25'0 0.0
2018-Feb-21 04:30N 51°54' W 008°25'0 0.0
2018-Feb-21 04:00N 51°54' W 008°25'0 0.0
2018-Feb-21 03:30N 51°54' W 008°25'0 0.0
2018-Feb-21 03:00N 51°54' W 008°25'0 0.0
2018-Feb-21 02:30N 51°54' W 008°25'0 0.0
2018-Feb-21 02:00N 51°54' W 008°25'0 0.0
2018-Feb-21 01:30N 51°54' W 008°25'0 0.0
2018-Feb-21 01:00N 51°54' W 008°25'0 0.0
2018-Feb-21 00:30N 51°54' W 008°25'0 0.0
2018-Feb-21 00:00N 51°54' W 008°25'0 0.1
2018-Feb-20 23:31N 51°54' W 008°25'3 6.4
2018-Feb-20 23:00N 51°53' W 008°20'3 5.3
2018-Feb-20 22:30N 51°51' W 008°17'510.0
2018-Feb-20 22:01N 51°46' W 008°15'612.4
2018-Feb-20 21:30N 51°45' W 008°05'612.6
2018-Feb-20 21:00N 51°47' W 007°55'612.6
2018-Feb-20 20:30N 51°49' W 007°46'612.6
2018-Feb-20 20:00N 51°51' W 007°36'612.5
2018-Feb-20 19:30N 51°53' W 007°26'612.5
2018-Feb-20 19:01N 51°55' W 007°17'612.6
2018-Feb-20 18:31N 51°57' W 007°07'713.0
2018-Feb-20 18:00N 51°59' W 006°57'713.3
2018-Feb-20 17:30N 52°01' W 006°47'6113.1
2018-Feb-20 12:51N 52°44' W 005°35'411.7
2018-Feb-20 12:30N 52°47' W 005°32'911.1
2018-Feb-20 11:42N 52°55' W 005°25'6610.1
2018-Feb-20 05:13N 53°34' W 003°56'412.6
2018-Feb-20 04:55N 53°34' W 003°50'512.5
2018-Feb-20 04:30N 53°34' W 003°41'612.3
2018-Feb-20 04:00N 53°33' W 003°31'612.2
2018-Feb-20 03:30N 53°33' W 003°20'510.0
2018-Feb-20 03:00N 53°31' W 003°12'510.5
2018-Feb-20 02:30N 53°29' W 003°05'3 5.4
2018-Feb-20 02:00N 53°27' W 003°01'0 0.9
2018-Feb-20 01:30N 53°27' W 003°01'0 0.6
2018-Feb-20 01:00N 53°28' W 003°02'0 0.0
2018-Feb-20 00:29N 53°28' W 003°02'0 0.0
2018-Feb-19 23:59N 53°28' W 003°02'0 0.0
2018-Feb-19 23:29N 53°28' W 003°02'0 0.0
2018-Feb-19 22:59N 53°28' W 003°02'0 0.0
2018-Feb-19 22:26N 53°28' W 003°02'0 0.0
2018-Feb-19 21:59N 53°28' W 003°02'0 0.0
2018-Feb-19 21:23N 53°28' W 003°02'0 0.0
2018-Feb-19 20:59N 53°28' W 003°02'0 0.0
2018-Feb-19 20:29N 53°28' W 003°02'0 0.0
2018-Feb-19 19:59N 53°28' W 003°02'0 0.0
2018-Feb-19 19:29N 53°28' W 003°02'0 0.0
2018-Feb-19 18:59N 53°28' W 003°02'0 0.0
2018-Feb-19 18:26N 53°28' W 003°02'0 0.0
2018-Feb-19 17:59N 53°28' W 003°02'0 0.0
2018-Feb-19 17:29N 53°28' W 003°02'0 0.0
2018-Feb-19 16:56N 53°28' W 003°02'0 0.0
2018-Feb-19 16:23N 53°28' W 003°02'0 0.0
2018-Feb-19 15:59N 53°28' W 003°02'0 0.0
2018-Feb-19 15:29N 53°28' W 003°02'0 0.0
2018-Feb-19 14:59N 53°28' W 003°02'0 0.0
2018-Feb-19 14:29N 53°28' W 003°02'0 0.0
2018-Feb-19 13:58N 53°28' W 003°02'0 0.2
2018-Feb-19 13:30N 53°28' W 003°02'1 2.4
2018-Feb-19 13:00N 53°27' W 003°01'0 0.5
2018-Feb-19 12:30N 53°26' W 003°01'0 0.3
2018-Feb-19 12:00N 53°26' W 003°01'2 4.5
2018-Feb-19 11:30N 53°28' W 003°03'510.4
2018-Feb-19 11:00N 53°32' W 003°09'510.7
2018-Feb-19 10:30N 53°31' W 003°18'2 4.1
2018-Feb-19 10:00N 53°31' W 003°21'3 6.3
2018-Feb-19 09:30N 53°32' W 003°27'4 6.9
2018-Feb-19 08:59N 53°35' W 003°31'4 8.3
2018-Feb-19 08:30N 53°37' W 003°36'5 9.3
2018-Feb-19 08:00N 53°40' W 003°42'5 9.5
2018-Feb-19 07:30N 53°42' W 003°49'4910.2
2018-Feb-19 02:39N 54°11' W 004°57'312.0
2018-Feb-19 02:26N 54°13' W 004°58'512.0
2018-Feb-19 02:00N 54°18' W 005°00'612.1
2018-Feb-19 01:30N 54°24' W 005°03'612.1
2018-Feb-19 01:00N 54°30' W 005°05'612.4
2018-Feb-19 00:30N 54°36' W 005°07'713.1
2018-Feb-19 00:00N 54°43' W 005°10'713.6
2018-Feb-18 23:30N 54°49' W 005°13'713.7
2018-Feb-18 23:00N 54°56' W 005°16'3912.1
2018-Feb-18 19:45N 55°34' W 004°60'411.9
2018-Feb-18 19:23N 55°38' W 004°60'512.5
2018-Feb-18 19:00N 55°43' W 004°59'612.7
2018-Feb-18 18:30N 55°49' W 004°57'713.4
2018-Feb-18 18:01N 55°56' W 004°55'5 0.5
2018-Feb-18 08:01N 55°58' W 004°46'0 3.4
2018-Feb-18 08:00N 55°58' W 004°46'3 5.7
2018-Feb-18 07:30N 55°58' W 004°51'3 5.3
2018-Feb-18 07:00N 55°56' W 004°55'3 5.4
2018-Feb-18 06:30N 55°53' W 004°56'3 5.2
2018-Feb-18 06:00N 55°51' W 004°57'3 5.8
2018-Feb-18 05:30N 55°48' W 004°57'3 6.0
2018-Feb-18 05:00N 55°45' W 004°59'3 5.8
2018-Feb-18 04:30N 55°42' W 004°59'3 5.9
2018-Feb-18 03:59N 55°39' W 004°59'32 8.4
2018-Feb-18 00:12N 55°09' W 005°16'2 9.4
2018-Feb-17 23:59N 55°07' W 005°18'4 9.2
2018-Feb-17 23:30N 55°03' W 005°21'4 8.5
2018-Feb-17 23:00N 54°59' W 005°25'4 7.8
2018-Feb-17 22:30N 54°56' W 005°27'4 8.1
2018-Feb-17 22:00N 54°52' W 005°31'4 7.8
2018-Feb-17 21:30N 54°49' W 005°34'4 8.1
2018-Feb-17 21:00N 54°45' W 005°38'4 8.1
2018-Feb-17 20:30N 54°42' W 005°42'4 8.8
2018-Feb-17 20:00N 54°41' W 005°49'3 0.4
2018-Feb-17 10:59N 54°38' W 005°53'3 5.4
2018-Feb-17 10:28N 54°40' W 005°50'510.4
2018-Feb-17 10:00N 54°43' W 005°43'4 7.4
2018-Feb-17 09:31N 54°43' W 005°37'3 6.5
2018-Feb-17 09:00N 54°44' W 005°31'1 1.9
2018-Feb-17 08:31N 54°45' W 005°30'1 1.6
2018-Feb-17 08:00N 54°45' W 005°32'0 0.7
2018-Feb-17 07:31N 54°45' W 005°32'0 0.8
2018-Feb-17 07:00N 54°46' W 005°33'0 0.8
2018-Feb-17 06:31N 54°46' W 005°33'0 0.9
2018-Feb-17 06:01N 54°46' W 005°34'1 1.5
2018-Feb-17 05:31N 54°46' W 005°35'1 2.0
2018-Feb-17 05:00N 54°47' W 005°35'1 1.5
2018-Feb-17 04:31N 54°48' W 005°35'1 1.1
2018-Feb-17 04:00N 54°49' W 005°35'0 0.6
2018-Feb-17 03:31N 54°49' W 005°35'1 1.9
2018-Feb-17 03:00N 54°48' W 005°34'1 2.3
2018-Feb-17 02:31N 54°47' W 005°33'3 6.6
2018-Feb-17 02:01N 54°44' W 005°30'4 7.1
2018-Feb-17 01:31N 54°41' W 005°27'3 6.2
2018-Feb-17 01:00N 54°38' W 005°24'3 5.5
2018-Feb-17 00:31N 54°36' W 005°22'4 7.2
2018-Feb-17 00:01N 54°33' W 005°20'611.0
2018-Feb-16 23:31N 54°28' W 005°16'510.5
2018-Feb-16 23:00N 54°23' W 005°11'510.4
2018-Feb-16 22:31N 54°18' W 005°08'510.7
2018-Feb-16 22:01N 54°14' W 005°03'510.6
2018-Feb-16 21:30N 54°09' W 004°59'4910.1
2018-Feb-16 16:40N 53°42' W 003°50'411.5
2018-Feb-16 16:20N 53°40' W 003°44'411.3
2018-Feb-16 15:59N 53°38' W 003°39'511.7
2018-Feb-16 15:30N 53°36' W 003°30'714.1
2018-Feb-16 15:00N 53°33' W 003°19'611.6
2018-Feb-16 14:30N 53°32' W 003°10'713.4
2018-Feb-16 14:00N 53°27' W 003°02'0 0.6
2018-Feb-16 13:28N 53°27' W 003°01'1 1.1
2018-Feb-16 13:00N 53°28' W 003°02'0 0.3
2018-Feb-16 12:30N 53°28' W 003°01'0 0.2
2018-Feb-16 11:57N 53°28' W 003°01'0 0.0
2018-Feb-16 11:30N 53°28' W 003°01'0 0.0
2018-Feb-16 11:00N 53°28' W 003°01'0 0.0
2018-Feb-16 10:30N 53°28' W 003°01'0 0.0
2018-Feb-16 10:00N 53°28' W 003°01'0 0.0
2018-Feb-16 09:30N 53°28' W 003°01'0 0.0
2018-Feb-16 08:57N 53°28' W 003°01'0 0.0
2018-Feb-16 08:30N 53°28' W 003°01'0 0.0
2018-Feb-16 07:57N 53°28' W 003°01'0 0.0
2018-Feb-16 07:30N 53°28' W 003°01'0 0.0
2018-Feb-16 07:00N 53°28' W 003°01'0 0.0
2018-Feb-16 06:30N 53°28' W 003°01'0 0.0
2018-Feb-16 06:00N 53°28' W 003°01'0 0.0
2018-Feb-16 05:30N 53°28' W 003°01'0 0.0
2018-Feb-16 04:51N 53°28' W 003°01'0 0.0
2018-Feb-16 04:30N 53°28' W 003°01'0 0.0
2018-Feb-16 04:00N 53°28' W 003°01'0 0.0
2018-Feb-16 03:30N 53°28' W 003°01'0 0.0
2018-Feb-16 03:00N 53°28' W 003°01'0 0.0
2018-Feb-16 02:30N 53°28' W 003°01'0 0.0
2018-Feb-16 02:00N 53°28' W 003°01'0 0.0
2018-Feb-16 01:30N 53°28' W 003°01'0 0.0
2018-Feb-16 01:00N 53°28' W 003°01'0 0.0
2018-Feb-16 00:30N 53°28' W 003°01'0 0.0
2018-Feb-15 23:57N 53°28' W 003°01'0 0.0
2018-Feb-15 23:30N 53°28' W 003°01'0 0.0
2018-Feb-15 23:00N 53°28' W 003°01'0 0.0
2018-Feb-15 22:30N 53°28' W 003°01'0 0.0
2018-Feb-15 22:00N 53°28' W 003°01'0 0.0
2018-Feb-15 21:27N 53°28' W 003°01'0 0.0
2018-Feb-15 21:00N 53°28' W 003°01'0 0.0
2018-Feb-15 20:30N 53°28' W 003°01'0 0.4
2018-Feb-15 20:00N 53°28' W 003°01'1 1.0
2018-Feb-15 19:30N 53°27' W 003°01'0 0.5
2018-Feb-15 19:00N 53°27' W 003°01'1 1.3
2018-Feb-15 18:30N 53°27' W 003°02'4 7.1
2018-Feb-15 18:00N 53°30' W 003°06'4 6.7
2018-Feb-15 17:29N 53°32' W 003°11'4 8.6
2018-Feb-15 17:00N 53°31' W 003°18'5 9.1
2018-Feb-15 16:30N 53°30' W 003°25'1 1.1
2018-Feb-15 16:00N 53°29' W 003°25'0 0.0
2018-Feb-15 15:30N 53°29' W 003°25'0 0.0
2018-Feb-15 15:00N 53°29' W 003°25'0 0.0
2018-Feb-15 14:30N 53°29' W 003°25'0 0.0
2018-Feb-15 13:57N 53°29' W 003°25'0 0.0
2018-Feb-15 13:30N 53°29' W 003°25'0 0.1
2018-Feb-15 13:00N 53°29' W 003°25'2 3.7
2018-Feb-15 12:30N 53°31' W 003°23'5 9.9
2018-Feb-15 12:00N 53°31' W 003°15'5 9.7
2018-Feb-15 11:30N 53°31' W 003°07'510.0
2018-Feb-15 11:00N 53°27' W 003°02'0 0.7
2018-Feb-15 10:30N 53°27' W 003°01'1 2.6
2018-Feb-15 10:00N 53°28' W 003°03'5 9.8
2018-Feb-15 09:30N 53°32' W 003°08'5 9.8
2018-Feb-15 09:00N 53°31' W 003°16'510.9
2018-Feb-15 08:30N 53°31' W 003°25'611.5
2018-Feb-15 08:00N 53°30' W 003°35'611.6
2018-Feb-15 07:30N 53°30' W 003°45'5510.2
2018-Feb-15 02:06N 53°22' W 005°16'211.8
2018-Feb-15 01:57N 53°22' W 005°19'611.8
2018-Feb-15 01:28N 53°22' W 005°29'511.8
2018-Feb-15 01:00N 53°22' W 005°38'611.8
2018-Feb-15 00:30N 53°22' W 005°48'611.4
2018-Feb-14 23:58N 53°22' W 005°58'510.6
2018-Feb-14 23:30N 53°20' W 006°06'4 5.3
2018-Feb-14 22:47N 53°21' W 006°12'0 0.0
2018-Feb-14 22:20N 53°21' W 006°12'0 0.0
2018-Feb-14 21:50N 53°21' W 006°12'0 0.0
2018-Feb-14 21:17N 53°21' W 006°12'0 0.0
2018-Feb-14 20:47N 53°21' W 006°12'0 0.0
2018-Feb-14 20:14N 53°21' W 006°12'0 0.0
2018-Feb-14 19:59N 53°21' W 006°12'0 0.0
2018-Feb-14 19:29N 53°21' W 006°12'0 0.0
2018-Feb-14 18:56N 53°21' W 006°12'0 0.0
2018-Feb-14 18:29N 53°21' W 006°12'0 0.0
2018-Feb-14 17:59N 53°21' W 006°12'0 0.0
2018-Feb-14 17:23N 53°21' W 006°12'  
Track history (hours):
 
Tides and Currents Weather Stations Pressure Air Temp Water Temp Dewpoint Dewpoint Depression Visibility Wind Speed Wind Dir Waves Ship Positions

Anna G

Last reported at 2018-Feb-24 17:06 UTC. Time now 2018-Feb-25 00:22 UTC.
Position N 55°58' W 004°46'.

Length 101 m; draft 5.3 m.

Type: Ship (hazmat cat A). MMSI: 212075000.

Date/timePositionNaut miles runAvg speedWind from/ knotsBaromVisibWave heightAir tempDewpointWater temp
2018-Feb-24 17:06N 55°58' W 004°46'1 7.8
2018-Feb-24 16:59N 55°58' W 004°48'510.1
2018-Feb-24 16:31N 55°55' W 004°55'612.7
2018-Feb-24 16:00N 55°49' W 004°57'713.1
2018-Feb-24 15:30N 55°43' W 004°59'4012.7
2018-Feb-24 12:19N 55°04' W 005°21'412.6
2018-Feb-24 12:01N 55°01' W 005°24'612.8
2018-Feb-24 11:30N 54°55' W 005°29'612.9
2018-Feb-24 11:00N 54°49' W 005°35'613.0
2018-Feb-24 10:31N 54°44' W 005°41'611.2
2018-Feb-24 10:01N 54°41' W 005°49'4 0.3
2018-Feb-23 18:46N 54°38' W 005°53'0 0.1
2018-Feb-23 15:34N 54°38' W 005°53'0 7.5
2018-Feb-23 15:30N 54°39' W 005°52'611.5
2018-Feb-23 15:00N 54°42' W 005°44'611.5
2018-Feb-23 14:30N 54°43' W 005°35'5 9.3
2018-Feb-23 14:00N 54°41' W 005°27'5 9.6
2018-Feb-23 13:30N 54°37' W 005°24'5 9.4
2018-Feb-23 13:00N 54°33' W 005°20'510.0
2018-Feb-23 12:30N 54°28' W 005°16'510.5
2018-Feb-23 12:00N 54°24' W 005°12'510.7
2018-Feb-23 11:30N 54°19' W 005°08'510.7
2018-Feb-23 11:00N 54°14' W 005°04'4811.1
2018-Feb-23 06:42N 53°44' W 004°00'312.3
2018-Feb-23 06:29N 53°43' W 003°56'612.4
2018-Feb-23 06:00N 53°40' W 003°47'612.1
2018-Feb-23 05:30N 53°38' W 003°38'611.8
2018-Feb-23 05:00N 53°35' W 003°29'611.5
2018-Feb-23 04:30N 53°33' W 003°20'510.5
2018-Feb-23 04:00N 53°31' W 003°12'510.7
2018-Feb-23 03:30N 53°29' W 003°04'2 4.7
2018-Feb-23 03:00N 53°27' W 003°01'0 0.3
2018-Feb-23 02:30N 53°27' W 003°01'0 0.8
2018-Feb-23 01:59N 53°28' W 003°01'0 0.0
2018-Feb-23 01:29N 53°28' W 003°01'0 0.0
2018-Feb-23 00:59N 53°28' W 003°01'0 0.0
2018-Feb-23 00:29N 53°28' W 003°01'0 0.0
2018-Feb-22 23:59N 53°28' W 003°01'0 0.0
2018-Feb-22 23:29N 53°28' W 003°01'0 0.0
2018-Feb-22 22:59N 53°28' W 003°01'0 0.0
2018-Feb-22 22:29N 53°28' W 003°01'0 0.0
2018-Feb-22 21:59N 53°28' W 003°01'0 0.0
2018-Feb-22 21:29N 53°28' W 003°01'0 0.0
2018-Feb-22 20:59N 53°28' W 003°01'0 0.0
2018-Feb-22 20:29N 53°28' W 003°01'0 0.0
2018-Feb-22 19:59N 53°28' W 003°01'0 0.0
2018-Feb-22 19:28N 53°28' W 003°01'0 0.0
2018-Feb-22 18:58N 53°28' W 003°01'0 0.0
2018-Feb-22 18:28N 53°28' W 003°01'0 0.0
2018-Feb-22 17:58N 53°28' W 003°01'0 0.0
2018-Feb-22 17:25N 53°28' W 003°01'0 0.0
2018-Feb-22 16:58N 53°28' W 003°01'0 0.0
2018-Feb-22 16:28N 53°28' W 003°01'0 0.0
2018-Feb-22 15:49N 53°28' W 003°01'0 0.0
2018-Feb-22 15:28N 53°28' W 003°01'0 0.0
2018-Feb-22 14:58N 53°28' W 003°01'0 0.0
2018-Feb-22 14:28N 53°28' W 003°01'0 0.0
2018-Feb-22 13:58N 53°28' W 003°01'0 0.0
2018-Feb-22 13:28N 53°28' W 003°01'0 0.0
2018-Feb-22 12:55N 53°28' W 003°01'0 0.0
2018-Feb-22 12:22N 53°28' W 003°01'0 0.0
2018-Feb-22 12:00N 53°28' W 003°01'1 1.3
2018-Feb-22 11:30N 53°27' W 003°01'0 0.0
2018-Feb-22 11:00N 53°27' W 003°01'2 3.2
2018-Feb-22 10:30N 53°28' W 003°03'5 9.5
2018-Feb-22 10:00N 53°32' W 003°08'510.4
2018-Feb-22 09:30N 53°31' W 003°17'5 9.1
2018-Feb-22 09:00N 53°31' W 003°25'510.8
2018-Feb-22 08:30N 53°31' W 003°34'510.7
2018-Feb-22 08:00N 53°31' W 003°43'511.1
2018-Feb-22 07:30N 53°31' W 003°52'510.8
2018-Feb-22 07:00N 53°31' W 004°01'142 9.8
2018-Feb-21 16:28N 51°56' W 006°56'611.3
2018-Feb-21 15:54N 51°54' W 007°06'411.3
2018-Feb-21 15:30N 51°53' W 007°13'611.3
2018-Feb-21 15:00N 51°51' W 007°22'611.2
2018-Feb-21 14:30N 51°50' W 007°31'611.3
2018-Feb-21 14:00N 51°49' W 007°40'611.1
2018-Feb-21 13:30N 51°48' W 007°49'611.3
2018-Feb-21 13:00N 51°46' W 007°57'611.3
2018-Feb-21 12:30N 51°45' W 008°06'510.5
2018-Feb-21 12:00N 51°46' W 008°15'510.7
2018-Feb-21 11:30N 51°51' W 008°17'4 7.6
2018-Feb-21 11:00N 51°53' W 008°22'2 3.5
2018-Feb-21 10:30N 51°54' W 008°25'0 0.0
2018-Feb-21 10:00N 51°54' W 008°25'0 0.0
2018-Feb-21 09:31N 51°54' W 008°25'0 0.0
2018-Feb-21 09:00N 51°54' W 008°25'0 0.0
2018-Feb-21 08:30N 51°54' W 008°25'0 0.0
2018-Feb-21 08:00N 51°54' W 008°25'0 0.0
2018-Feb-21 07:30N 51°54' W 008°25'0 0.0
2018-Feb-21 07:00N 51°54' W 008°25'0 0.0
2018-Feb-21 06:30N 51°54' W 008°25'0 0.0
2018-Feb-21 06:00N 51°54' W 008°25'0 0.0
2018-Feb-21 05:27N 51°54' W 008°25'0 0.0
2018-Feb-21 05:00N 51°54' W 008°25'0 0.0
2018-Feb-21 04:30N 51°54' W 008°25'0 0.0
2018-Feb-21 04:00N 51°54' W 008°25'0 0.0
2018-Feb-21 03:30N 51°54' W 008°25'0 0.0
2018-Feb-21 03:00N 51°54' W 008°25'0 0.0
2018-Feb-21 02:30N 51°54' W 008°25'0 0.0
2018-Feb-21 02:00N 51°54' W 008°25'0 0.0
2018-Feb-21 01:30N 51°54' W 008°25'0 0.0
2018-Feb-21 01:00N 51°54' W 008°25'0 0.0
2018-Feb-21 00:30N 51°54' W 008°25'0 0.0
2018-Feb-21 00:00N 51°54' W 008°25'0 0.1
2018-Feb-20 23:31N 51°54' W 008°25'3 6.4
2018-Feb-20 23:00N 51°53' W 008°20'3 5.3
2018-Feb-20 22:30N 51°51' W 008°17'510.0
2018-Feb-20 22:01N 51°46' W 008°15'612.4
2018-Feb-20 21:30N 51°45' W 008°05'612.6
2018-Feb-20 21:00N 51°47' W 007°55'612.6
2018-Feb-20 20:30N 51°49' W 007°46'612.6
2018-Feb-20 20:00N 51°51' W 007°36'612.5
2018-Feb-20 19:30N 51°53' W 007°26'612.5
2018-Feb-20 19:01N 51°55' W 007°17'612.6
2018-Feb-20 18:31N 51°57' W 007°07'713.0
2018-Feb-20 18:00N 51°59' W 006°57'713.3
2018-Feb-20 17:30N 52°01' W 006°47'6113.1
2018-Feb-20 12:51N 52°44' W 005°35'411.7
2018-Feb-20 12:30N 52°47' W 005°32'911.1
2018-Feb-20 11:42N 52°55' W 005°25'6610.1
2018-Feb-20 05:13N 53°34' W 003°56'412.6
2018-Feb-20 04:55N 53°34' W 003°50'512.5
2018-Feb-20 04:30N 53°34' W 003°41'612.3
2018-Feb-20 04:00N 53°33' W 003°31'612.2
2018-Feb-20 03:30N 53°33' W 003°20'510.0
2018-Feb-20 03:00N 53°31' W 003°12'510.5
2018-Feb-20 02:30N 53°29' W 003°05'3 5.4
2018-Feb-20 02:00N 53°27' W 003°01'0 0.9
2018-Feb-20 01:30N 53°27' W 003°01'0 0.6
2018-Feb-20 01:00N 53°28' W 003°02'0 0.0
2018-Feb-20 00:29N 53°28' W 003°02'0 0.0
2018-Feb-19 23:59N 53°28' W 003°02'0 0.0
2018-Feb-19 23:29N 53°28' W 003°02'0 0.0
2018-Feb-19 22:59N 53°28' W 003°02'0 0.0
2018-Feb-19 22:26N 53°28' W 003°02'0 0.0
2018-Feb-19 21:59N 53°28' W 003°02'0 0.0
2018-Feb-19 21:23N 53°28' W 003°02'0 0.0
2018-Feb-19 20:59N 53°28' W 003°02'0 0.0
2018-Feb-19 20:29N 53°28' W 003°02'0 0.0
2018-Feb-19 19:59N 53°28' W 003°02'0 0.0
2018-Feb-19 19:29N 53°28' W 003°02'0 0.0
2018-Feb-19 18:59N 53°28' W 003°02'0 0.0
2018-Feb-19 18:26N 53°28' W 003°02'0 0.0
2018-Feb-19 17:59N 53°28' W 003°02'0 0.0
2018-Feb-19 17:29N 53°28' W 003°02'0 0.0
2018-Feb-19 16:56N 53°28' W 003°02'0 0.0
2018-Feb-19 16:23N 53°28' W 003°02'0 0.0
2018-Feb-19 15:59N 53°28' W 003°02'0 0.0
2018-Feb-19 15:29N 53°28' W 003°02'0 0.0
2018-Feb-19 14:59N 53°28' W 003°02'0 0.0
2018-Feb-19 14:29N 53°28' W 003°02'0 0.0
2018-Feb-19 13:58N 53°28' W 003°02'0 0.2
2018-Feb-19 13:30N 53°28' W 003°02'1 2.4
2018-Feb-19 13:00N 53°27' W 003°01'0 0.5
2018-Feb-19 12:30N 53°26' W 003°01'0 0.3
2018-Feb-19 12:00N 53°26' W 003°01'2 4.5
2018-Feb-19 11:30N 53°28' W 003°03'510.4
2018-Feb-19 11:00N 53°32' W 003°09'510.7
2018-Feb-19 10:30N 53°31' W 003°18'2 4.1
2018-Feb-19 10:00N 53°31' W 003°21'3 6.3
2018-Feb-19 09:30N 53°32' W 003°27'4 6.9
2018-Feb-19 08:59N 53°35' W 003°31'4 8.3
2018-Feb-19 08:30N 53°37' W 003°36'5 9.3
2018-Feb-19 08:00N 53°40' W 003°42'5 9.5
2018-Feb-19 07:30N 53°42' W 003°49'4910.2
2018-Feb-19 02:39N 54°11' W 004°57'312.0
2018-Feb-19 02:26N 54°13' W 004°58'512.0
2018-Feb-19 02:00N 54°18' W 005°00'612.1
2018-Feb-19 01:30N 54°24' W 005°03'612.1
2018-Feb-19 01:00N 54°30' W 005°05'612.4
2018-Feb-19 00:30N 54°36' W 005°07'713.1
2018-Feb-19 00:00N 54°43' W 005°10'713.6
2018-Feb-18 23:30N 54°49' W 005°13'713.7
2018-Feb-18 23:00N 54°56' W 005°16'3912.1
2018-Feb-18 19:45N 55°34' W 004°60'411.9
2018-Feb-18 19:23N 55°38' W 004°60'512.5
2018-Feb-18 19:00N 55°43' W 004°59'612.7
2018-Feb-18 18:30N 55°49' W 004°57'713.4
2018-Feb-18 18:01N 55°56' W 004°55'5 0.5
2018-Feb-18 08:01N 55°58' W 004°46'0 3.4
2018-Feb-18 08:00N 55°58' W 004°46'3 5.7
2018-Feb-18 07:30N 55°58' W 004°51'3 5.3
2018-Feb-18 07:00N 55°56' W 004°55'3 5.4
2018-Feb-18 06:30N 55°53' W 004°56'3 5.2
2018-Feb-18 06:00N 55°51' W 004°57'3 5.8
2018-Feb-18 05:30N 55°48' W 004°57'3 6.0
2018-Feb-18 05:00N 55°45' W 004°59'3 5.8
2018-Feb-18 04:30N 55°42' W 004°59'3 5.9
2018-Feb-18 03:59N 55°39' W 004°59'32 8.4
2018-Feb-18 00:12N 55°09' W 005°16'2 9.4
2018-Feb-17 23:59N 55°07' W 005°18'4 9.2
2018-Feb-17 23:30N 55°03' W 005°21'4 8.5
2018-Feb-17 23:00N 54°59' W 005°25'4 7.8
2018-Feb-17 22:30N 54°56' W 005°27'4 8.1
2018-Feb-17 22:00N 54°52' W 005°31'4 7.8
2018-Feb-17 21:30N 54°49' W 005°34'4 8.1
2018-Feb-17 21:00N 54°45' W 005°38'4 8.1
2018-Feb-17 20:30N 54°42' W 005°42'4 8.8
2018-Feb-17 20:00N 54°41' W 005°49'3 0.4
2018-Feb-17 10:59N 54°38' W 005°53'3 5.4
2018-Feb-17 10:28N 54°40' W 005°50'510.4
2018-Feb-17 10:00N 54°43' W 005°43'4 7.4
2018-Feb-17 09:31N 54°43' W 005°37'3 6.5
2018-Feb-17 09:00N 54°44' W 005°31'1 1.9
2018-Feb-17 08:31N 54°45' W 005°30'1 1.6
2018-Feb-17 08:00N 54°45' W 005°32'0 0.7
2018-Feb-17 07:31N 54°45' W 005°32'0 0.8
2018-Feb-17 07:00N 54°46' W 005°33'0 0.8
2018-Feb-17 06:31N 54°46' W 005°33'0 0.9
2018-Feb-17 06:01N 54°46' W 005°34'1 1.5
2018-Feb-17 05:31N 54°46' W 005°35'1 2.0
2018-Feb-17 05:00N 54°47' W 005°35'1 1.5
2018-Feb-17 04:31N 54°48' W 005°35'1 1.1
2018-Feb-17 04:00N 54°49' W 005°35'0 0.6
2018-Feb-17 03:31N 54°49' W 005°35'1 1.9
2018-Feb-17 03:00N 54°48' W 005°34'1 2.3
2018-Feb-17 02:31N 54°47' W 005°33'3 6.6
2018-Feb-17 02:01N 54°44' W 005°30'4 7.1
2018-Feb-17 01:31N 54°41' W 005°27'3 6.2
2018-Feb-17 01:00N 54°38' W 005°24'3 5.5
2018-Feb-17 00:31N 54°36' W 005°22'4 7.2
2018-Feb-17 00:01N 54°33' W 005°20'611.0
2018-Feb-16 23:31N 54°28' W 005°16'510.5
2018-Feb-16 23:00N 54°23' W 005°11'510.4
2018-Feb-16 22:31N 54°18' W 005°08'510.7
2018-Feb-16 22:01N 54°14' W 005°03'510.6
2018-Feb-16 21:30N 54°09' W 004°59'4910.1
2018-Feb-16 16:40N 53°42' W 003°50'411.5
2018-Feb-16 16:20N 53°40' W 003°44'411.3
2018-Feb-16 15:59N 53°38' W 003°39'511.7
2018-Feb-16 15:30N 53°36' W 003°30'714.1
2018-Feb-16 15:00N 53°33' W 003°19'611.6
2018-Feb-16 14:30N 53°32' W 003°10'713.4
2018-Feb-16 14:00N 53°27' W 003°02'0 0.6
2018-Feb-16 13:28N 53°27' W 003°01'1 1.1
2018-Feb-16 13:00N 53°28' W 003°02'0 0.3
2018-Feb-16 12:30N 53°28' W 003°01'0 0.2
2018-Feb-16 11:57N 53°28' W 003°01'0 0.0
2018-Feb-16 11:30N 53°28' W 003°01'0 0.0
2018-Feb-16 11:00N 53°28' W 003°01'0 0.0
2018-Feb-16 10:30N 53°28' W 003°01'0 0.0
2018-Feb-16 10:00N 53°28' W 003°01'0 0.0
2018-Feb-16 09:30N 53°28' W 003°01'0 0.0
2018-Feb-16 08:57N 53°28' W 003°01'0 0.0
2018-Feb-16 08:30N 53°28' W 003°01'0 0.0
2018-Feb-16 07:57N 53°28' W 003°01'0 0.0
2018-Feb-16 07:30N 53°28' W 003°01'0 0.0
2018-Feb-16 07:00N 53°28' W 003°01'0 0.0
2018-Feb-16 06:30N 53°28' W 003°01'0 0.0
2018-Feb-16 06:00N 53°28' W 003°01'0 0.0
2018-Feb-16 05:30N 53°28' W 003°01'0 0.0
2018-Feb-16 04:51N 53°28' W 003°01'0 0.0
2018-Feb-16 04:30N 53°28' W 003°01'0 0.0
2018-Feb-16 04:00N 53°28' W 003°01'0 0.0
2018-Feb-16 03:30N 53°28' W 003°01'0 0.0
2018-Feb-16 03:00N 53°28' W 003°01'0 0.0
2018-Feb-16 02:30N 53°28' W 003°01'0 0.0
2018-Feb-16 02:00N 53°28' W 003°01'0 0.0
2018-Feb-16 01:30N 53°28' W 003°01'0 0.0
2018-Feb-16 01:00N 53°28' W 003°01'0 0.0
2018-Feb-16 00:30N 53°28' W 003°01'0 0.0
2018-Feb-15 23:57N 53°28' W 003°01'0 0.0
2018-Feb-15 23:30N 53°28' W 003°01'0 0.0
2018-Feb-15 23:00N 53°28' W 003°01'0 0.0
2018-Feb-15 22:30N 53°28' W 003°01'0 0.0
2018-Feb-15 22:00N 53°28' W 003°01'0 0.0
2018-Feb-15 21:27N 53°28' W 003°01'0 0.0
2018-Feb-15 21:00N 53°28' W 003°01'0 0.0
2018-Feb-15 20:30N 53°28' W 003°01'0 0.4
2018-Feb-15 20:00N 53°28' W 003°01'1 1.0
2018-Feb-15 19:30N 53°27' W 003°01'0 0.5
2018-Feb-15 19:00N 53°27' W 003°01'1 1.3
2018-Feb-15 18:30N 53°27' W 003°02'4 7.1
2018-Feb-15 18:00N 53°30' W 003°06'4 6.7
2018-Feb-15 17:29N 53°32' W 003°11'4 8.6
2018-Feb-15 17:00N 53°31' W 003°18'5 9.1
2018-Feb-15 16:30N 53°30' W 003°25'1 1.1
2018-Feb-15 16:00N 53°29' W 003°25'0 0.0
2018-Feb-15 15:30N 53°29' W 003°25'0 0.0
2018-Feb-15 15:00N 53°29' W 003°25'0 0.0
2018-Feb-15 14:30N 53°29' W 003°25'0 0.0
2018-Feb-15 13:57N 53°29' W 003°25'0 0.0
2018-Feb-15 13:30N 53°29' W 003°25'0 0.1
2018-Feb-15 13:00N 53°29' W 003°25'2 3.7
2018-Feb-15 12:30N 53°31' W 003°23'5 9.9
2018-Feb-15 12:00N 53°31' W 003°15'5 9.7
2018-Feb-15 11:30N 53°31' W 003°07'510.0
2018-Feb-15 11:00N 53°27' W 003°02'0 0.7
2018-Feb-15 10:30N 53°27' W 003°01'1 2.6
2018-Feb-15 10:00N 53°28' W 003°03'5 9.8
2018-Feb-15 09:30N 53°32' W 003°08'5 9.8
2018-Feb-15 09:00N 53°31' W 003°16'510.9
2018-Feb-15 08:30N 53°31' W 003°25'611.5
2018-Feb-15 08:00N 53°30' W 003°35'611.6
2018-Feb-15 07:30N 53°30' W 003°45'5510.2
2018-Feb-15 02:06N 53°22' W 005°16'211.8
2018-Feb-15 01:57N 53°22' W 005°19'611.8
2018-Feb-15 01:28N 53°22' W 005°29'511.8
2018-Feb-15 01:00N 53°22' W 005°38'611.8
2018-Feb-15 00:30N 53°22' W 005°48'611.4
2018-Feb-14 23:58N 53°22' W 005°58'510.6
2018-Feb-14 23:30N 53°20' W 006°06'4 5.3
2018-Feb-14 22:47N 53°21' W 006°12'0 0.0
2018-Feb-14 22:20N 53°21' W 006°12'0 0.0
2018-Feb-14 21:50N 53°21' W 006°12'0 0.0
2018-Feb-14 21:17N 53°21' W 006°12'0 0.0
2018-Feb-14 20:47N 53°21' W 006°12'0 0.0
2018-Feb-14 20:14N 53°21' W 006°12'0 0.0
2018-Feb-14 19:59N 53°21' W 006°12'0 0.0
2018-Feb-14 19:29N 53°21' W 006°12'0 0.0
2018-Feb-14 18:56N 53°21' W 006°12'0 0.0
2018-Feb-14 18:29N 53°21' W 006°12'0 0.0
2018-Feb-14 17:59N 53°21' W 006°12'0 0.0
2018-Feb-14 17:23N 53°21' W 006°12'  

Dump ship's entire track history